Flight Track Log - Related Links

Times and Time Zones

All times are in EDT time to prevent confusion due to time zone crossing. See the N724AE flight status page for this flight to view local times or setup timezone preferences in your user account.

Time Position Orientation Groundspeed Altitude Reporting Facility
EDT Latitude Longitude Course Direction KTS MPH feet Rate Location/Type
Sat 09:26:00 AM 32.4597 -99.4329 90° East  Level Estimated
Sat 09:26:10 AM 32.3467 -99.4717 106° East 283 326 8,200  Level Fort Worth Center
Sat 09:27:00 AM 32.4757 -99.3498 110° East  Level Estimated
Sat 09:27:10 AM 32.3358 -99.3756 98° East 283 326 10,200  Level Fort Worth Center
Sat 09:28:00 AM 32.4109 -99.3129 154° Southeast  Level FlightAware Approximate
Sat 09:28:10 AM 32.3247 -99.2744 97° East 302 348 12,200  Level Fort Worth Center
Sat 09:29:00 AM 32.4292 -99.2306 113° Southeast  Level Estimated
Sat 09:29:10 AM 32.3136 -99.1686 97° East 312 359 14,600  Level Fort Worth Center
Sat 09:30:00 AM 32.3706 -99.1814 145° Southeast  Level FlightAware Approximate
Sat 09:30:10 AM 32.3006 -99.0625 98° East 318 366 16,500  Level Fort Worth Center
Sat 09:31:00 AM 32.3914 -99.0999 106° East  Level Estimated
Sat 09:31:10 AM 32.2894 -98.9542 97° East 324 373 18,600  Level Fort Worth Center
Sat 09:32:10 AM 32.2783 -98.8436 97° East 335 386 20,200 1,200 Climbing Fort Worth Center
Sat 09:33:10 AM 32.2647 -98.7303 98° East 340 391 21,000 400 Climbing Fort Worth Center
Sat 09:34:10 AM 32.2514 -98.6169 98° East 340 391 21,000  Level Fort Worth Center
Sat 09:35:10 AM 32.2400 -98.5039 97° East 340 391 21,000  Level Fort Worth Center
Sat 09:36:10 AM 32.2219 -98.3858 100° East 352 405 21,000  Level Fort Worth Center
Sat 09:37:10 AM 32.2231 -98.2533 89° East 372 428 21,000  Level Fort Worth Center
Sat 09:38:10 AM 32.2489 -98.1306 76° East 416 479 21,000 -750 Level Fort Worth Center
Sat 09:39:10 AM 32.2789 -97.9811 77° East 421 484 19,500 -1,900 Descending Fort Worth Center
Sat 09:40:10 AM 32.3022 -97.8681 76° East 403 464 17,200 -2,500 Descending Fort Worth Center
Sat 09:41:10 AM 32.3256 -97.7381 78° East 374 430 14,500 -2,400 Descending Fort Worth Center
Sat 09:42:10 AM 32.3572 -97.6444 68° East 341 392 12,400 -1,700 Descending Fort Worth Center
Sat 09:43:10 AM 32.4261 -97.5611 46° Northeast 324 373 11,100 -650 Descending Fort Worth Center
Sat 09:44:10 AM 32.4825 -97.4947 45° Northeast 311 358 11,100  Level Fort Worth Center
Sat 09:45:10 AM 32.5494 -97.4133 46° Northeast 311 358 11,100  Level Fort Worth Center
Sat 09:46:10 AM 32.6078 -97.3469 44° Northeast 306 352 11,100  Level Fort Worth Center
Sat 09:47:10 AM 32.6747 -97.2603 47° Northeast 306 352 11,100  Level Fort Worth Center
Sat 09:48:10 AM 32.7289 -97.1936 46° Northeast 306 352 11,100 -50 Level Fort Worth Center
Sat 09:49:10 AM 32.8019 -97.1711 15° North 274 315 11,000 -850 Descending Fort Worth Center
Sat 09:50:10 AM 32.8769 -97.1686 North 263 303 9,400 -1,600 Descending Fort Worth Center
Sat 09:51:10 AM 32.9542 -97.1658 North 263 303 7,800 -1,500 Descending Fort Worth Center
Sat 09:52:10 AM 33.0314 -97.1656 360° North 268 308 6,400 -1,500 Descending Fort Worth Center
Sat 09:53:10 AM 33.1086 -97.1631 North 263 303 4,800 -1,300 Descending Fort Worth Center
Sat 09:54:10 AM 33.1608 -97.1356 24° Northeast 213 245 3,800 -528 Descending Fort Worth Center
Sat 09:56:23 AM 33.1000 -97.0500 130° Southeast 167 192 3,100 -316 Descending Dallas / Fort Worth TRACON

Login

Don't have an account? Register now (free) for customized features, flight alerts, and more!